sensor_id;sensor_type;location;lat;lon;timestamp;P1;durP1;ratioP1;P2;durP2;ratioP2
78322;SDS011;67583;50.616;-3.404;2023-07-31T00:01:01;4.45;;;1.83;;
78322;SDS011;67583;50.616;-3.404;2023-07-31T00:03:26;11.05;;;3.17;;
78322;SDS011;67583;50.616;-3.404;2023-07-31T00:05:52;4.40;;;2.33;;
78322;SDS011;67583;50.616;-3.404;2023-07-31T00:08:17;6.75;;;2.30;;
78322;SDS011;67583;50.616;-3.404;2023-07-31T00:10:42;5.85;;;2.28;;
78322;SDS011;67583;50.616;-3.404;2023-07-31T00:13:08;8.55;;;2.50;;
78322;SDS011;67583;50.616;-3.404;2023-07-31T00:15:33;6.05;;;2.90;;
78322;SDS011;67583;50.616;-3.404;2023-07-31T00:17:58;6.72;;;2.10;;
78322;SDS011;67583;50.616;-3.404;2023-07-31T00:20:24;6.30;;;1.95;;
78322;SDS011;67583;50.616;-3.404;2023-07-31T00:22:49;7.47;;;2.00;;
78322;SDS011;67583;50.616;-3.404;2023-07-31T00:25:15;3.97;;;2.33;;
78322;SDS011;67583;50.616;-3.404;2023-07-31T00:27:40;3.92;;;1.60;;
78322;SDS011;67583;50.616;-3.404;2023-07-31T00:30:09;5.13;;;1.92;;
78322;SDS011;67583;50.616;-3.404;2023-07-31T00:32:35;3.80;;;1.40;;
78322;SDS011;67583;50.616;-3.404;2023-07-31T00:35:00;5.55;;;2.42;;
78322;SDS011;67583;50.616;-3.404;2023-07-31T00:37:26;7.68;;;1.75;;
78322;SDS011;67583;50.616;-3.404;2023-07-31T00:39:52;7.13;;;1.85;;
78322;SDS011;67583;50.616;-3.404;2023-07-31T00:42:17;4.60;;;1.65;;
78322;SDS011;67583;50.616;-3.404;2023-07-31T00:44:43;3.63;;;1.45;;
78322;SDS011;67583;50.616;-3.404;2023-07-31T00:47:08;5.88;;;1.58;;
78322;SDS011;67583;50.616;-3.404;2023-07-31T00:49:33;2.58;;;1.52;;
78322;SDS011;67583;50.616;-3.404;2023-07-31T00:51:59;3.65;;;1.52;;
78322;SDS011;67583;50.616;-3.404;2023-07-31T00:54:25;2.60;;;1.50;;
78322;SDS011;67583;50.616;-3.404;2023-07-31T00:56:50;7.18;;;1.55;;
78322;SDS011;67583;50.616;-3.404;2023-07-31T00:59:18;3.42;;;1.40;;
78322;SDS011;67583;50.616;-3.404;2023-07-31T01:01:43;2.45;;;1.30;;
78322;SDS011;67583;50.616;-3.404;2023-07-31T01:04:09;7.00;;;2.28;;
78322;SDS011;67583;50.616;-3.404;2023-07-31T01:09:22;9.50;;;3.10;;
78322;SDS011;67583;50.616;-3.404;2023-07-31T01:12:13;3.85;;;1.50;;
78322;SDS011;67583;50.616;-3.404;2023-07-31T01:14:39;8.23;;;2.38;;
78322;SDS011;67583;50.616;-3.404;2023-07-31T01:17:05;4.25;;;1.67;;
78322;SDS011;67583;50.616;-3.404;2023-07-31T01:19:30;7.13;;;1.98;;
78322;SDS011;67583;50.616;-3.404;2023-07-31T01:27:15;4.90;;;1.60;;
78322;SDS011;67583;50.616;-3.404;2023-07-31T01:29:45;5.22;;;2.08;;
78322;SDS011;67583;50.616;-3.404;2023-07-31T01:32:12;6.65;;;2.20;;
78322;SDS011;67583;50.616;-3.404;2023-07-31T01:34:38;3.45;;;1.60;;
78322;SDS011;67583;50.616;-3.404;2023-07-31T01:37:04;5.18;;;2.28;;
78322;SDS011;67583;50.616;-3.404;2023-07-31T01:39:30;4.75;;;1.48;;
78322;SDS011;67583;50.616;-3.404;2023-07-31T01:41:55;5.68;;;1.33;;
78322;SDS011;67583;50.616;-3.404;2023-07-31T01:44:21;5.80;;;1.95;;
78322;SDS011;67583;50.616;-3.404;2023-07-31T01:46:46;5.25;;;1.80;;
78322;SDS011;67583;50.616;-3.404;2023-07-31T01:49:11;4.55;;;1.48;;
78322;SDS011;67583;50.616;-3.404;2023-07-31T01:51:37;7.30;;;1.80;;
78322;SDS011;67583;50.616;-3.404;2023-07-31T01:54:02;5.00;;;1.88;;
78322;SDS011;67583;50.616;-3.404;2023-07-31T01:56:28;5.80;;;1.60;;
78322;SDS011;67583;50.616;-3.404;2023-07-31T01:58:53;6.00;;;1.70;;
78322;SDS011;67583;50.616;-3.404;2023-07-31T02:01:19;7.05;;;1.73;;
78322;SDS011;67583;50.616;-3.404;2023-07-31T02:03:44;3.67;;;1.52;;
78322;SDS011;67583;50.616;-3.404;2023-07-31T02:06:09;6.82;;;2.17;;
78322;SDS011;67583;50.616;-3.404;2023-07-31T02:08:35;4.32;;;1.50;;
78322;SDS011;67583;50.616;-3.404;2023-07-31T02:11:00;3.17;;;1.67;;
78322;SDS011;67583;50.616;-3.404;2023-07-31T02:13:26;7.72;;;3.65;;
78322;SDS011;67583;50.616;-3.404;2023-07-31T02:15:51;6.32;;;1.70;;
78322;SDS011;67583;50.616;-3.404;2023-07-31T02:18:16;6.90;;;2.78;;
78322;SDS011;67583;50.616;-3.404;2023-07-31T02:20:42;6.20;;;1.48;;
78322;SDS011;67583;50.616;-3.404;2023-07-31T02:23:07;5.25;;;1.52;;
78322;SDS011;67583;50.616;-3.404;2023-07-31T02:25:33;6.72;;;1.35;;
78322;SDS011;67583;50.616;-3.404;2023-07-31T02:27:58;7.30;;;1.50;;
78322;SDS011;67583;50.616;-3.404;2023-07-31T02:30:23;7.75;;;1.75;;
78322;SDS011;67583;50.616;-3.404;2023-07-31T02:32:49;2.10;;;1.27;;
78322;SDS011;67583;50.616;-3.404;2023-07-31T02:35:14;5.35;;;1.55;;
78322;SDS011;67583;50.616;-3.404;2023-07-31T02:37:41;2.47;;;1.20;;
78322;SDS011;67583;50.616;-3.404;2023-07-31T02:40:07;1.50;;;1.00;;
78322;SDS011;67583;50.616;-3.404;2023-07-31T02:42:33;3.15;;;1.25;;
78322;SDS011;67583;50.616;-3.404;2023-07-31T02:44:58;1.92;;;1.02;;
78322;SDS011;67583;50.616;-3.404;2023-07-31T02:47:24;4.20;;;1.40;;
78322;SDS011;67583;50.616;-3.404;2023-07-31T02:49:49;3.85;;;1.60;;
78322;SDS011;67583;50.616;-3.404;2023-07-31T02:52:14;4.53;;;2.40;;
78322;SDS011;67583;50.616;-3.404;2023-07-31T02:54:40;4.20;;;2.25;;
78322;SDS011;67583;50.616;-3.404;2023-07-31T02:57:05;4.20;;;1.60;;
78322;SDS011;67583;50.616;-3.404;2023-07-31T02:59:30;3.90;;;1.67;;
78322;SDS011;67583;50.616;-3.404;2023-07-31T03:01:56;5.55;;;1.75;;
78322;SDS011;67583;50.616;-3.404;2023-07-31T03:04:21;4.03;;;1.88;;
78322;SDS011;67583;50.616;-3.404;2023-07-31T03:06:47;3.90;;;1.70;;
78322;SDS011;67583;50.616;-3.404;2023-07-31T03:09:12;2.85;;;1.58;;
78322;SDS011;67583;50.616;-3.404;2023-07-31T03:11:37;5.65;;;1.90;;
78322;SDS011;67583;50.616;-3.404;2023-07-31T03:14:03;4.18;;;1.45;;
78322;SDS011;67583;50.616;-3.404;2023-07-31T03:16:28;4.63;;;1.50;;
78322;SDS011;67583;50.616;-3.404;2023-07-31T03:18:54;5.07;;;1.80;;
78322;SDS011;67583;50.616;-3.404;2023-07-31T03:21:19;6.43;;;1.90;;
78322;SDS011;67583;50.616;-3.404;2023-07-31T03:23:45;4.43;;;1.88;;
78322;SDS011;67583;50.616;-3.404;2023-07-31T03:26:10;9.32;;;2.13;;
78322;SDS011;67583;50.616;-3.404;2023-07-31T03:28:35;4.20;;;1.65;;
78322;SDS011;67583;50.616;-3.404;2023-07-31T03:31:01;7.53;;;2.10;;
78322;SDS011;67583;50.616;-3.404;2023-07-31T03:33:26;8.43;;;2.10;;
78322;SDS011;67583;50.616;-3.404;2023-07-31T03:35:53;6.38;;;2.45;;
78322;SDS011;67583;50.616;-3.404;2023-07-31T03:38:21;4.18;;;1.80;;
78322;SDS011;67583;50.616;-3.404;2023-07-31T03:40:47;6.13;;;2.28;;
78322;SDS011;67583;50.616;-3.404;2023-07-31T03:43:12;6.55;;;1.90;;
78322;SDS011;67583;50.616;-3.404;2023-07-31T03:45:38;9.43;;;2.70;;
78322;SDS011;67583;50.616;-3.404;2023-07-31T03:48:03;6.90;;;1.83;;
78322;SDS011;67583;50.616;-3.404;2023-07-31T03:50:29;3.33;;;1.30;;
78322;SDS011;67583;50.616;-3.404;2023-07-31T03:52:54;3.28;;;1.48;;
78322;SDS011;67583;50.616;-3.404;2023-07-31T03:55:20;3.70;;;1.60;;
78322;SDS011;67583;50.616;-3.404;2023-07-31T03:57:46;3.35;;;1.60;;
78322;SDS011;67583;50.616;-3.404;2023-07-31T04:00:12;2.83;;;1.83;;
78322;SDS011;67583;50.616;-3.404;2023-07-31T04:02:37;4.05;;;1.60;;
78322;SDS011;67583;50.616;-3.404;2023-07-31T04:05:03;3.55;;;1.40;;
78322;SDS011;67583;50.616;-3.404;2023-07-31T04:07:28;5.30;;;2.28;;
78322;SDS011;67583;50.616;-3.404;2023-07-31T04:09:54;6.25;;;2.42;;
78322;SDS011;67583;50.616;-3.404;2023-07-31T04:12:19;2.10;;;1.52;;
78322;SDS011;67583;50.616;-3.404;2023-07-31T04:14:44;3.30;;;1.08;;
78322;SDS011;67583;50.616;-3.404;2023-07-31T04:17:10;3.28;;;1.45;;
78322;SDS011;67583;50.616;-3.404;2023-07-31T04:19:37;6.95;;;1.70;;
78322;SDS011;67583;50.616;-3.404;2023-07-31T04:22:03;5.50;;;2.50;;
78322;SDS011;67583;50.616;-3.404;2023-07-31T04:24:28;8.30;;;1.90;;
78322;SDS011;67583;50.616;-3.404;2023-07-31T04:26:54;6.70;;;2.45;;
78322;SDS011;67583;50.616;-3.404;2023-07-31T04:29:19;7.35;;;2.22;;
78322;SDS011;67583;50.616;-3.404;2023-07-31T04:31:45;5.35;;;2.00;;
78322;SDS011;67583;50.616;-3.404;2023-07-31T04:34:10;6.75;;;1.90;;
78322;SDS011;67583;50.616;-3.404;2023-07-31T04:36:37;7.18;;;2.00;;
78322;SDS011;67583;50.616;-3.404;2023-07-31T04:39:02;3.90;;;1.80;;
78322;SDS011;67583;50.616;-3.404;2023-07-31T04:41:27;4.15;;;2.00;;
78322;SDS011;67583;50.616;-3.404;2023-07-31T04:43:53;5.38;;;1.77;;
78322;SDS011;67583;50.616;-3.404;2023-07-31T04:46:18;3.95;;;2.28;;
78322;SDS011;67583;50.616;-3.404;2023-07-31T04:48:44;4.13;;;1.40;;
78322;SDS011;67583;50.616;-3.404;2023-07-31T04:51:09;2.05;;;1.48;;
78322;SDS011;67583;50.616;-3.404;2023-07-31T04:53:35;2.55;;;1.55;;
78322;SDS011;67583;50.616;-3.404;2023-07-31T04:56:00;2.70;;;1.63;;
78322;SDS011;67583;50.616;-3.404;2023-07-31T04:58:26;6.13;;;1.52;;
78322;SDS011;67583;50.616;-3.404;2023-07-31T05:00:51;4.25;;;1.75;;
78322;SDS011;67583;50.616;-3.404;2023-07-31T05:03:17;4.97;;;1.42;;
78322;SDS011;67583;50.616;-3.404;2023-07-31T05:05:42;4.30;;;1.67;;
78322;SDS011;67583;50.616;-3.404;2023-07-31T05:08:08;2.55;;;1.40;;
78322;SDS011;67583;50.616;-3.404;2023-07-31T05:10:33;1.88;;;1.30;;
78322;SDS011;67583;50.616;-3.404;2023-07-31T05:12:59;6.45;;;1.58;;
78322;SDS011;67583;50.616;-3.404;2023-07-31T05:15:24;4.15;;;1.88;;
78322;SDS011;67583;50.616;-3.404;2023-07-31T05:17:49;5.18;;;2.03;;
78322;SDS011;67583;50.616;-3.404;2023-07-31T05:20:15;4.07;;;1.63;;
78322;SDS011;67583;50.616;-3.404;2023-07-31T05:22:40;3.70;;;2.20;;
78322;SDS011;67583;50.616;-3.404;2023-07-31T05:25:06;2.83;;;1.70;;
78322;SDS011;67583;50.616;-3.404;2023-07-31T05:27:32;5.28;;;1.67;;
78322;SDS011;67583;50.616;-3.404;2023-07-31T05:29:57;4.35;;;2.00;;
78322;SDS011;67583;50.616;-3.404;2023-07-31T05:32:23;3.17;;;1.83;;
78322;SDS011;67583;50.616;-3.404;2023-07-31T05:34:50;3.72;;;2.47;;
78322;SDS011;67583;50.616;-3.404;2023-07-31T05:37:16;4.38;;;1.52;;
78322;SDS011;67583;50.616;-3.404;2023-07-31T05:39:42;6.78;;;1.80;;
78322;SDS011;67583;50.616;-3.404;2023-07-31T05:42:07;2.83;;;1.40;;
78322;SDS011;67583;50.616;-3.404;2023-07-31T05:44:33;2.10;;;1.08;;
78322;SDS011;67583;50.616;-3.404;2023-07-31T05:46:58;1.98;;;1.10;;
78322;SDS011;67583;50.616;-3.404;2023-07-31T05:49:23;3.08;;;1.45;;
78322;SDS011;67583;50.616;-3.404;2023-07-31T05:51:49;2.00;;;1.45;;
78322;SDS011;67583;50.616;-3.404;2023-07-31T05:54:14;3.03;;;1.30;;
78322;SDS011;67583;50.616;-3.404;2023-07-31T05:56:39;3.75;;;1.40;;
78322;SDS011;67583;50.616;-3.404;2023-07-31T05:59:05;4.00;;;1.38;;
78322;SDS011;67583;50.616;-3.404;2023-07-31T06:01:30;4.88;;;1.42;;
78322;SDS011;67583;50.616;-3.404;2023-07-31T06:03:56;4.07;;;1.60;;
78322;SDS011;67583;50.616;-3.404;2023-07-31T06:06:21;1.90;;;1.25;;
78322;SDS011;67583;50.616;-3.404;2023-07-31T06:08:46;3.08;;;1.20;;
78322;SDS011;67583;50.616;-3.404;2023-07-31T06:11:12;0.85;;;0.70;;
78322;SDS011;67583;50.616;-3.404;2023-07-31T06:13:37;1.73;;;0.90;;
78322;SDS011;67583;50.616;-3.404;2023-07-31T06:16:03;1.40;;;1.00;;
78322;SDS011;67583;50.616;-3.404;2023-07-31T06:18:31;0.73;;;0.73;;
78322;SDS011;67583;50.616;-3.404;2023-07-31T06:20:57;1.33;;;1.00;;
78322;SDS011;67583;50.616;-3.404;2023-07-31T06:23:22;1.38;;;1.05;;
78322;SDS011;67583;50.616;-3.404;2023-07-31T06:25:48;1.45;;;1.00;;
78322;SDS011;67583;50.616;-3.404;2023-07-31T06:28:13;2.53;;;1.00;;
78322;SDS011;67583;50.616;-3.404;2023-07-31T06:30:39;1.67;;;1.33;;
78322;SDS011;67583;50.616;-3.404;2023-07-31T06:33:04;2.38;;;1.50;;
78322;SDS011;67583;50.616;-3.404;2023-07-31T06:35:29;4.00;;;1.58;;
78322;SDS011;67583;50.616;-3.404;2023-07-31T06:37:55;4.63;;;1.88;;
78322;SDS011;67583;50.616;-3.404;2023-07-31T06:40:20;3.17;;;1.70;;
78322;SDS011;67583;50.616;-3.404;2023-07-31T06:42:47;4.15;;;1.95;;
78322;SDS011;67583;50.616;-3.404;2023-07-31T06:45:12;3.47;;;2.40;;
78322;SDS011;67583;50.616;-3.404;2023-07-31T06:47:37;4.95;;;2.10;;
78322;SDS011;67583;50.616;-3.404;2023-07-31T06:50:03;3.80;;;2.10;;
78322;SDS011;67583;50.616;-3.404;2023-07-31T06:52:30;3.45;;;2.30;;
78322;SDS011;67583;50.616;-3.404;2023-07-31T06:55:02;4.47;;;2.38;;
78322;SDS011;67583;50.616;-3.404;2023-07-31T06:57:44;3.83;;;2.22;;
78322;SDS011;67583;50.616;-3.404;2023-07-31T07:00:10;4.88;;;2.58;;
78322;SDS011;67583;50.616;-3.404;2023-07-31T07:02:35;4.25;;;2.10;;
78322;SDS011;67583;50.616;-3.404;2023-07-31T07:05:01;4.25;;;1.90;;
78322;SDS011;67583;50.616;-3.404;2023-07-31T07:07:27;3.65;;;2.58;;
78322;SDS011;67583;50.616;-3.404;2023-07-31T07:09:53;4.82;;;2.50;;
78322;SDS011;67583;50.616;-3.404;2023-07-31T07:12:18;3.83;;;2.15;;
78322;SDS011;67583;50.616;-3.404;2023-07-31T07:14:43;4.15;;;2.35;;
78322;SDS011;67583;50.616;-3.404;2023-07-31T07:17:10;4.85;;;2.33;;
78322;SDS011;67583;50.616;-3.404;2023-07-31T07:19:36;4.82;;;2.25;;
78322;SDS011;67583;50.616;-3.404;2023-07-31T07:22:01;4.63;;;2.75;;
78322;SDS011;67583;50.616;-3.404;2023-07-31T07:24:27;5.70;;;2.63;;
78322;SDS011;67583;50.616;-3.404;2023-07-31T07:26:53;5.70;;;2.85;;
78322;SDS011;67583;50.616;-3.404;2023-07-31T07:29:18;6.15;;;3.00;;
78322;SDS011;67583;50.616;-3.404;2023-07-31T07:31:44;5.88;;;2.47;;
78322;SDS011;67583;50.616;-3.404;2023-07-31T07:34:09;4.18;;;2.63;;
78322;SDS011;67583;50.616;-3.404;2023-07-31T07:36:34;4.35;;;2.60;;
78322;SDS011;67583;50.616;-3.404;2023-07-31T07:39:00;7.57;;;3.05;;
78322;SDS011;67583;50.616;-3.404;2023-07-31T07:41:25;4.93;;;2.45;;
78322;SDS011;67583;50.616;-3.404;2023-07-31T07:43:50;4.57;;;2.67;;
78322;SDS011;67583;50.616;-3.404;2023-07-31T07:46:16;5.30;;;3.13;;
78322;SDS011;67583;50.616;-3.404;2023-07-31T07:48:42;6.25;;;3.03;;
78322;SDS011;67583;50.616;-3.404;2023-07-31T07:51:07;5.05;;;2.97;;
78322;SDS011;67583;50.616;-3.404;2023-07-31T07:53:33;4.80;;;2.55;;
78322;SDS011;67583;50.616;-3.404;2023-07-31T07:55:58;8.90;;;2.90;;
78322;SDS011;67583;50.616;-3.404;2023-07-31T07:58:23;9.50;;;3.47;;
78322;SDS011;67583;50.616;-3.404;2023-07-31T08:00:50;8.25;;;3.05;;
78322;SDS011;67583;50.616;-3.404;2023-07-31T08:03:15;6.32;;;2.88;;
78322;SDS011;67583;50.616;-3.404;2023-07-31T08:05:42;4.35;;;2.50;;
78322;SDS011;67583;50.616;-3.404;2023-07-31T08:08:07;6.07;;;2.90;;
78322;SDS011;67583;50.616;-3.404;2023-07-31T08:10:33;6.75;;;3.00;;
78322;SDS011;67583;50.616;-3.404;2023-07-31T08:12:58;3.90;;;2.40;;
78322;SDS011;67583;50.616;-3.404;2023-07-31T08:15:23;5.10;;;2.85;;
78322;SDS011;67583;50.616;-3.404;2023-07-31T08:17:49;5.70;;;2.53;;
78322;SDS011;67583;50.616;-3.404;2023-07-31T08:20:14;5.43;;;2.85;;
78322;SDS011;67583;50.616;-3.404;2023-07-31T08:22:39;7.45;;;2.70;;
78322;SDS011;67583;50.616;-3.404;2023-07-31T08:25:05;5.20;;;2.20;;
78322;SDS011;67583;50.616;-3.404;2023-07-31T08:27:31;7.88;;;3.33;;
78322;SDS011;67583;50.616;-3.404;2023-07-31T08:29:57;3.50;;;2.22;;
78322;SDS011;67583;50.616;-3.404;2023-07-31T08:32:22;5.38;;;2.80;;
78322;SDS011;67583;50.616;-3.404;2023-07-31T08:34:48;8.55;;;2.40;;
78322;SDS011;67583;50.616;-3.404;2023-07-31T08:37:14;4.60;;;2.30;;
78322;SDS011;67583;50.616;-3.404;2023-07-31T08:39:39;6.05;;;2.42;;
78322;SDS011;67583;50.616;-3.404;2023-07-31T08:42:07;6.47;;;2.75;;
78322;SDS011;67583;50.616;-3.404;2023-07-31T08:44:34;3.00;;;2.10;;
78322;SDS011;67583;50.616;-3.404;2023-07-31T08:46:59;7.05;;;2.50;;
78322;SDS011;67583;50.616;-3.404;2023-07-31T08:49:25;6.10;;;2.65;;
78322;SDS011;67583;50.616;-3.404;2023-07-31T08:51:51;5.20;;;2.50;;
78322;SDS011;67583;50.616;-3.404;2023-07-31T08:54:17;7.97;;;3.35;;
78322;SDS011;67583;50.616;-3.404;2023-07-31T08:56:42;5.32;;;2.75;;
78322;SDS011;67583;50.616;-3.404;2023-07-31T08:59:08;5.80;;;3.03;;
78322;SDS011;67583;50.616;-3.404;2023-07-31T09:01:36;6.28;;;2.88;;
78322;SDS011;67583;50.616;-3.404;2023-07-31T09:04:04;4.05;;;2.90;;
78322;SDS011;67583;50.616;-3.404;2023-07-31T09:06:30;6.28;;;2.80;;
78322;SDS011;67583;50.616;-3.404;2023-07-31T09:08:56;6.35;;;3.38;;
78322;SDS011;67583;50.616;-3.404;2023-07-31T09:11:21;6.25;;;2.85;;
78322;SDS011;67583;50.616;-3.404;2023-07-31T09:13:49;5.85;;;2.50;;
78322;SDS011;67583;50.616;-3.404;2023-07-31T09:16:14;5.68;;;1.80;;
78322;SDS011;67583;50.616;-3.404;2023-07-31T09:18:53;3.40;;;1.88;;
78322;SDS011;67583;50.616;-3.404;2023-07-31T09:21:20;4.93;;;1.90;;
78322;SDS011;67583;50.616;-3.404;2023-07-31T09:23:46;2.60;;;1.58;;
78322;SDS011;67583;50.616;-3.404;2023-07-31T09:26:32;5.70;;;2.10;;
78322;SDS011;67583;50.616;-3.404;2023-07-31T09:29:06;7.88;;;2.33;;
78322;SDS011;67583;50.616;-3.404;2023-07-31T09:31:40;6.40;;;2.47;;
78322;SDS011;67583;50.616;-3.404;2023-07-31T09:34:06;4.20;;;2.10;;
78322;SDS011;67583;50.616;-3.404;2023-07-31T09:36:32;4.03;;;2.25;;
78322;SDS011;67583;50.616;-3.404;2023-07-31T09:39:01;3.25;;;1.92;;
78322;SDS011;67583;50.616;-3.404;2023-07-31T09:43:55;4.68;;;2.65;;
78322;SDS011;67583;50.616;-3.404;2023-07-31T09:46:21;4.80;;;2.63;;
78322;SDS011;67583;50.616;-3.404;2023-07-31T09:48:46;5.78;;;2.72;;
78322;SDS011;67583;50.616;-3.404;2023-07-31T09:51:12;4.40;;;2.72;;
78322;SDS011;67583;50.616;-3.404;2023-07-31T09:53:37;7.07;;;3.30;;
78322;SDS011;67583;50.616;-3.404;2023-07-31T09:56:03;3.30;;;2.05;;
78322;SDS011;67583;50.616;-3.404;2023-07-31T09:58:29;9.10;;;2.75;;
78322;SDS011;67583;50.616;-3.404;2023-07-31T10:00:55;6.97;;;2.83;;
78322;SDS011;67583;50.616;-3.404;2023-07-31T10:03:22;7.03;;;2.47;;
78322;SDS011;67583;50.616;-3.404;2023-07-31T10:05:49;7.63;;;3.03;;
78322;SDS011;67583;50.616;-3.404;2023-07-31T10:08:15;5.38;;;2.83;;
78322;SDS011;67583;50.616;-3.404;2023-07-31T10:10:41;5.25;;;2.60;;
78322;SDS011;67583;50.616;-3.404;2023-07-31T10:13:08;9.85;;;3.10;;
78322;SDS011;67583;50.616;-3.404;2023-07-31T10:15:34;5.20;;;3.72;;
78322;SDS011;67583;50.616;-3.404;2023-07-31T10:17:59;7.45;;;3.20;;
78322;SDS011;67583;50.616;-3.404;2023-07-31T10:20:25;7.45;;;3.25;;
78322;SDS011;67583;50.616;-3.404;2023-07-31T10:22:52;6.10;;;2.92;;
78322;SDS011;67583;50.616;-3.404;2023-07-31T10:25:19;6.93;;;3.75;;
78322;SDS011;67583;50.616;-3.404;2023-07-31T10:27:46;9.73;;;3.10;;
78322;SDS011;67583;50.616;-3.404;2023-07-31T10:30:13;8.38;;;3.85;;
78322;SDS011;67583;50.616;-3.404;2023-07-31T10:32:40;16.58;;;5.40;;
78322;SDS011;67583;50.616;-3.404;2023-07-31T10:35:07;11.45;;;5.35;;
78322;SDS011;67583;50.616;-3.404;2023-07-31T10:40:06;8.90;;;5.20;;
78322;SDS011;67583;50.616;-3.404;2023-07-31T10:42:45;11.07;;;5.05;;
78322;SDS011;67583;50.616;-3.404;2023-07-31T10:45:12;11.00;;;4.85;;
78322;SDS011;67583;50.616;-3.404;2023-07-31T10:47:37;12.27;;;4.85;;
78322;SDS011;67583;50.616;-3.404;2023-07-31T10:50:17;25.48;;;6.82;;
78322;SDS011;67583;50.616;-3.404;2023-07-31T10:52:53;12.13;;;4.43;;
78322;SDS011;67583;50.616;-3.404;2023-07-31T10:57:51;9.75;;;4.80;;
78322;SDS011;67583;50.616;-3.404;2023-07-31T11:00:18;10.65;;;4.93;;
78322;SDS011;67583;50.616;-3.404;2023-07-31T11:08:30;11.45;;;5.53;;
78322;SDS011;67583;50.616;-3.404;2023-07-31T11:13:28;8.57;;;4.68;;
78322;SDS011;67583;50.616;-3.404;2023-07-31T11:15:58;12.70;;;6.28;;
78322;SDS011;67583;50.616;-3.404;2023-07-31T11:18:25;12.60;;;5.75;;
78322;SDS011;67583;50.616;-3.404;2023-07-31T11:20:52;11.55;;;5.45;;
78322;SDS011;67583;50.616;-3.404;2023-07-31T11:23:17;10.88;;;5.32;;
78322;SDS011;67583;50.616;-3.404;2023-07-31T11:25:43;12.38;;;4.45;;
78322;SDS011;67583;50.616;-3.404;2023-07-31T11:28:10;6.43;;;4.07;;
78322;SDS011;67583;50.616;-3.404;2023-07-31T11:30:37;17.38;;;5.78;;
78322;SDS011;67583;50.616;-3.404;2023-07-31T11:33:03;12.30;;;5.15;;
78322;SDS011;67583;50.616;-3.404;2023-07-31T11:35:30;8.63;;;4.60;;
78322;SDS011;67583;50.616;-3.404;2023-07-31T11:37:58;15.82;;;5.22;;
78322;SDS011;67583;50.616;-3.404;2023-07-31T11:40:24;13.82;;;5.65;;
78322;SDS011;67583;50.616;-3.404;2023-07-31T11:42:56;10.50;;;5.03;;
78322;SDS011;67583;50.616;-3.404;2023-07-31T11:45:24;11.23;;;4.88;;
78322;SDS011;67583;50.616;-3.404;2023-07-31T11:47:51;10.63;;;4.07;;
78322;SDS011;67583;50.616;-3.404;2023-07-31T11:50:16;10.48;;;4.78;;
78322;SDS011;67583;50.616;-3.404;2023-07-31T11:52:42;15.43;;;5.40;;
78322;SDS011;67583;50.616;-3.404;2023-07-31T11:55:09;8.30;;;4.60;;
78322;SDS011;67583;50.616;-3.404;2023-07-31T11:57:37;11.05;;;4.93;;
78322;SDS011;67583;50.616;-3.404;2023-07-31T12:00:04;10.38;;;4.80;;
78322;SDS011;67583;50.616;-3.404;2023-07-31T12:02:30;8.93;;;4.80;;
78322;SDS011;67583;50.616;-3.404;2023-07-31T12:04:56;12.35;;;5.53;;
78322;SDS011;67583;50.616;-3.404;2023-07-31T12:07:23;12.55;;;4.82;;
78322;SDS011;67583;50.616;-3.404;2023-07-31T12:09:53;14.95;;;5.30;;
78322;SDS011;67583;50.616;-3.404;2023-07-31T12:12:19;11.75;;;5.20;;
78322;SDS011;67583;50.616;-3.404;2023-07-31T12:14:48;12.38;;;4.72;;
78322;SDS011;67583;50.616;-3.404;2023-07-31T12:17:14;13.45;;;5.07;;
78322;SDS011;67583;50.616;-3.404;2023-07-31T12:19:39;11.40;;;5.75;;
78322;SDS011;67583;50.616;-3.404;2023-07-31T12:22:15;13.20;;;5.85;;
78322;SDS011;67583;50.616;-3.404;2023-07-31T12:24:42;8.60;;;4.25;;
78322;SDS011;67583;50.616;-3.404;2023-07-31T12:27:10;13.88;;;5.82;;
78322;SDS011;67583;50.616;-3.404;2023-07-31T12:29:37;8.93;;;4.22;;
78322;SDS011;67583;50.616;-3.404;2023-07-31T12:32:03;11.45;;;5.53;;
78322;SDS011;67583;50.616;-3.404;2023-07-31T12:34:29;10.32;;;4.93;;
78322;SDS011;67583;50.616;-3.404;2023-07-31T12:36:54;9.43;;;4.80;;
78322;SDS011;67583;50.616;-3.404;2023-07-31T12:39:19;10.23;;;4.68;;
78322;SDS011;67583;50.616;-3.404;2023-07-31T12:41:45;9.80;;;5.68;;
78322;SDS011;67583;50.616;-3.404;2023-07-31T12:44:10;12.27;;;5.45;;
78322;SDS011;67583;50.616;-3.404;2023-07-31T12:46:36;14.90;;;4.93;;
78322;SDS011;67583;50.616;-3.404;2023-07-31T12:49:02;13.93;;;5.30;;
78322;SDS011;67583;50.616;-3.404;2023-07-31T12:51:27;8.43;;;4.88;;
78322;SDS011;67583;50.616;-3.404;2023-07-31T12:53:53;13.65;;;6.97;;
78322;SDS011;67583;50.616;-3.404;2023-07-31T12:56:18;14.05;;;5.55;;
78322;SDS011;67583;50.616;-3.404;2023-07-31T12:58:43;13.32;;;5.43;;
78322;SDS011;67583;50.616;-3.404;2023-07-31T13:01:09;14.10;;;5.07;;
78322;SDS011;67583;50.616;-3.404;2023-07-31T13:03:34;10.90;;;5.05;;
78322;SDS011;67583;50.616;-3.404;2023-07-31T13:05:59;15.05;;;5.50;;
78322;SDS011;67583;50.616;-3.404;2023-07-31T13:08:25;10.35;;;5.53;;
78322;SDS011;67583;50.616;-3.404;2023-07-31T13:10:50;14.05;;;5.18;;
78322;SDS011;67583;50.616;-3.404;2023-07-31T13:13:16;14.63;;;5.65;;
78322;SDS011;67583;50.616;-3.404;2023-07-31T13:15:41;11.90;;;5.45;;
78322;SDS011;67583;50.616;-3.404;2023-07-31T13:18:06;11.15;;;5.22;;
78322;SDS011;67583;50.616;-3.404;2023-07-31T13:20:32;14.32;;;5.60;;
78322;SDS011;67583;50.616;-3.404;2023-07-31T13:22:57;9.45;;;4.97;;
78322;SDS011;67583;50.616;-3.404;2023-07-31T13:25:22;14.68;;;5.25;;
78322;SDS011;67583;50.616;-3.404;2023-07-31T13:27:48;10.70;;;5.00;;
78322;SDS011;67583;50.616;-3.404;2023-07-31T13:30:13;14.32;;;5.63;;
78322;SDS011;67583;50.616;-3.404;2023-07-31T13:32:39;16.42;;;5.78;;
78322;SDS011;67583;50.616;-3.404;2023-07-31T13:35:05;9.18;;;4.53;;
78322;SDS011;67583;50.616;-3.404;2023-07-31T13:37:31;15.18;;;4.93;;
78322;SDS011;67583;50.616;-3.404;2023-07-31T13:39:56;18.15;;;5.22;;
78322;SDS011;67583;50.616;-3.404;2023-07-31T13:42:22;12.65;;;5.30;;
78322;SDS011;67583;50.616;-3.404;2023-07-31T13:44:47;13.27;;;5.43;;
78322;SDS011;67583;50.616;-3.404;2023-07-31T13:47:12;8.65;;;4.43;;
78322;SDS011;67583;50.616;-3.404;2023-07-31T13:49:38;18.70;;;6.68;;
78322;SDS011;67583;50.616;-3.404;2023-07-31T13:52:04;11.27;;;5.15;;
78322;SDS011;67583;50.616;-3.404;2023-07-31T13:54:29;14.02;;;6.18;;
78322;SDS011;67583;50.616;-3.404;2023-07-31T13:56:55;9.40;;;4.80;;
78322;SDS011;67583;50.616;-3.404;2023-07-31T13:59:20;13.40;;;5.43;;
78322;SDS011;67583;50.616;-3.404;2023-07-31T14:01:46;14.35;;;5.68;;
78322;SDS011;67583;50.616;-3.404;2023-07-31T14:04:12;11.68;;;5.82;;
78322;SDS011;67583;50.616;-3.404;2023-07-31T14:06:37;12.18;;;4.68;;
78322;SDS011;67583;50.616;-3.404;2023-07-31T14:09:03;8.63;;;5.28;;
78322;SDS011;67583;50.616;-3.404;2023-07-31T14:11:28;10.13;;;5.07;;
78322;SDS011;67583;50.616;-3.404;2023-07-31T14:13:54;12.88;;;5.35;;
78322;SDS011;67583;50.616;-3.404;2023-07-31T14:16:21;10.65;;;5.40;;
78322;SDS011;67583;50.616;-3.404;2023-07-31T14:18:47;11.88;;;4.70;;
78322;SDS011;67583;50.616;-3.404;2023-07-31T14:21:12;11.82;;;4.63;;
78322;SDS011;67583;50.616;-3.404;2023-07-31T14:23:37;13.68;;;5.07;;
78322;SDS011;67583;50.616;-3.404;2023-07-31T14:26:03;8.45;;;4.38;;
78322;SDS011;67583;50.616;-3.404;2023-07-31T14:28:28;10.05;;;4.28;;
78322;SDS011;67583;50.616;-3.404;2023-07-31T14:30:54;12.43;;;4.63;;
78322;SDS011;67583;50.616;-3.404;2023-07-31T14:33:19;10.50;;;4.07;;
78322;SDS011;67583;50.616;-3.404;2023-07-31T14:35:44;7.75;;;4.38;;
78322;SDS011;67583;50.616;-3.404;2023-07-31T14:38:10;10.43;;;4.15;;
78322;SDS011;67583;50.616;-3.404;2023-07-31T14:40:35;8.95;;;4.47;;
78322;SDS011;67583;50.616;-3.404;2023-07-31T14:43:01;8.75;;;4.10;;
78322;SDS011;67583;50.616;-3.404;2023-07-31T14:45:27;8.88;;;3.95;;
78322;SDS011;67583;50.616;-3.404;2023-07-31T14:47:55;8.57;;;4.22;;